sensor_id;sensor_type;location;lat;lon;timestamp;P1;durP1;ratioP1;P2;durP2;ratioP2
75441;SDS011;64019;48.312;14.226;2023-08-06T00:00:05;3.67;;;3.27;;
75441;SDS011;64019;48.312;14.226;2023-08-06T00:02:31;3.67;;;2.83;;
75441;SDS011;64019;48.312;14.226;2023-08-06T00:04:56;3.10;;;2.80;;
75441;SDS011;64019;48.312;14.226;2023-08-06T00:07:22;4.20;;;3.30;;
75441;SDS011;64019;48.312;14.226;2023-08-06T00:09:48;3.77;;;3.07;;
75441;SDS011;64019;48.312;14.226;2023-08-06T00:12:13;6.43;;;3.60;;
75441;SDS011;64019;48.312;14.226;2023-08-06T00:14:39;3.83;;;3.40;;
75441;SDS011;64019;48.312;14.226;2023-08-06T00:17:04;5.00;;;3.77;;
75441;SDS011;64019;48.312;14.226;2023-08-06T00:19:31;3.47;;;3.17;;
75441;SDS011;64019;48.312;14.226;2023-08-06T00:21:57;4.27;;;3.03;;
75441;SDS011;64019;48.312;14.226;2023-08-06T00:24:23;4.10;;;3.20;;
75441;SDS011;64019;48.312;14.226;2023-08-06T00:26:48;4.30;;;3.50;;
75441;SDS011;64019;48.312;14.226;2023-08-06T00:29:14;5.10;;;3.47;;
75441;SDS011;64019;48.312;14.226;2023-08-06T00:31:39;7.60;;;3.27;;
75441;SDS011;64019;48.312;14.226;2023-08-06T00:34:05;5.17;;;4.10;;
75441;SDS011;64019;48.312;14.226;2023-08-06T00:36:31;4.70;;;3.50;;
75441;SDS011;64019;48.312;14.226;2023-08-06T00:38:56;6.83;;;4.40;;
75441;SDS011;64019;48.312;14.226;2023-08-06T00:41:22;8.33;;;4.03;;
75441;SDS011;64019;48.312;14.226;2023-08-06T00:43:48;6.50;;;4.00;;
75441;SDS011;64019;48.312;14.226;2023-08-06T00:46:13;6.47;;;3.70;;
75441;SDS011;64019;48.312;14.226;2023-08-06T00:48:39;7.10;;;4.60;;
75441;SDS011;64019;48.312;14.226;2023-08-06T00:51:07;4.13;;;3.73;;
75441;SDS011;64019;48.312;14.226;2023-08-06T00:53:34;6.53;;;4.70;;
75441;SDS011;64019;48.312;14.226;2023-08-06T00:56:01;7.33;;;3.80;;
75441;SDS011;64019;48.312;14.226;2023-08-06T00:58:27;5.90;;;4.23;;
75441;SDS011;64019;48.312;14.226;2023-08-06T01:00:53;5.50;;;3.70;;
75441;SDS011;64019;48.312;14.226;2023-08-06T01:03:18;7.90;;;4.63;;
75441;SDS011;64019;48.312;14.226;2023-08-06T01:05:44;4.30;;;3.70;;
75441;SDS011;64019;48.312;14.226;2023-08-06T01:14:04;5.70;;;4.30;;
75441;SDS011;64019;48.312;14.226;2023-08-06T01:16:38;5.77;;;4.47;;
75441;SDS011;64019;48.312;14.226;2023-08-06T01:19:05;4.87;;;4.20;;
75441;SDS011;64019;48.312;14.226;2023-08-06T01:21:44;5.70;;;4.23;;
75441;SDS011;64019;48.312;14.226;2023-08-06T01:24:09;5.07;;;4.33;;
75441;SDS011;64019;48.312;14.226;2023-08-06T01:26:37;6.60;;;4.90;;
75441;SDS011;64019;48.312;14.226;2023-08-06T01:29:15;9.43;;;4.77;;
75441;SDS011;64019;48.312;14.226;2023-08-06T01:31:53;5.10;;;4.20;;
75441;SDS011;64019;48.312;14.226;2023-08-06T01:34:21;8.50;;;4.13;;
75441;SDS011;64019;48.312;14.226;2023-08-06T01:36:48;6.73;;;4.87;;
75441;SDS011;64019;48.312;14.226;2023-08-06T01:39:16;7.20;;;5.37;;
75441;SDS011;64019;48.312;14.226;2023-08-06T01:41:41;8.13;;;5.37;;
75441;SDS011;64019;48.312;14.226;2023-08-06T01:44:07;6.60;;;5.30;;
75441;SDS011;64019;48.312;14.226;2023-08-06T01:46:32;7.70;;;5.17;;
75441;SDS011;64019;48.312;14.226;2023-08-06T01:48:58;8.57;;;5.30;;
75441;SDS011;64019;48.312;14.226;2023-08-06T01:51:24;6.07;;;4.87;;
75441;SDS011;64019;48.312;14.226;2023-08-06T01:53:49;8.13;;;5.40;;
75441;SDS011;64019;48.312;14.226;2023-08-06T01:56:15;11.43;;;5.03;;
75441;SDS011;64019;48.312;14.226;2023-08-06T01:58:41;7.80;;;5.20;;
75441;SDS011;64019;48.312;14.226;2023-08-06T02:01:06;8.03;;;4.70;;
75441;SDS011;64019;48.312;14.226;2023-08-06T02:03:32;6.13;;;4.47;;
75441;SDS011;64019;48.312;14.226;2023-08-06T02:05:57;8.77;;;4.13;;
75441;SDS011;64019;48.312;14.226;2023-08-06T02:08:23;5.13;;;4.10;;
75441;SDS011;64019;48.312;14.226;2023-08-06T02:10:49;6.67;;;4.60;;
75441;SDS011;64019;48.312;14.226;2023-08-06T02:13:15;8.80;;;4.80;;
75441;SDS011;64019;48.312;14.226;2023-08-06T02:15:43;6.03;;;4.87;;
75441;SDS011;64019;48.312;14.226;2023-08-06T02:18:12;7.03;;;4.87;;
75441;SDS011;64019;48.312;14.226;2023-08-06T02:20:38;8.80;;;5.57;;
75441;SDS011;64019;48.312;14.226;2023-08-06T02:23:04;5.60;;;4.37;;
75441;SDS011;64019;48.312;14.226;2023-08-06T02:25:29;5.97;;;4.77;;
75441;SDS011;64019;48.312;14.226;2023-08-06T02:27:55;7.47;;;4.40;;
75441;SDS011;64019;48.312;14.226;2023-08-06T02:30:21;7.30;;;4.47;;
75441;SDS011;64019;48.312;14.226;2023-08-06T02:32:46;6.40;;;4.27;;
75441;SDS011;64019;48.312;14.226;2023-08-06T02:35:12;6.00;;;4.30;;
75441;SDS011;64019;48.312;14.226;2023-08-06T02:37:37;7.33;;;4.00;;
75441;SDS011;64019;48.312;14.226;2023-08-06T02:40:03;5.67;;;4.37;;
75441;SDS011;64019;48.312;14.226;2023-08-06T02:42:29;6.07;;;4.10;;
75441;SDS011;64019;48.312;14.226;2023-08-06T02:44:55;4.80;;;3.80;;
75441;SDS011;64019;48.312;14.226;2023-08-06T02:47:20;4.53;;;3.97;;
75441;SDS011;64019;48.312;14.226;2023-08-06T02:49:46;7.60;;;4.53;;
75441;SDS011;64019;48.312;14.226;2023-08-06T02:52:12;6.87;;;4.57;;
75441;SDS011;64019;48.312;14.226;2023-08-06T02:54:37;6.37;;;4.77;;
75441;SDS011;64019;48.312;14.226;2023-08-06T02:57:03;6.83;;;4.87;;
75441;SDS011;64019;48.312;14.226;2023-08-06T02:59:30;6.73;;;4.37;;
75441;SDS011;64019;48.312;14.226;2023-08-06T03:01:56;5.37;;;4.17;;
75441;SDS011;64019;48.312;14.226;2023-08-06T03:04:22;5.60;;;4.40;;
75441;SDS011;64019;48.312;14.226;2023-08-06T03:06:51;6.33;;;4.70;;
75441;SDS011;64019;48.312;14.226;2023-08-06T03:09:17;5.63;;;4.10;;
75441;SDS011;64019;48.312;14.226;2023-08-06T03:11:43;4.80;;;3.93;;
75441;SDS011;64019;48.312;14.226;2023-08-06T03:14:09;5.67;;;4.27;;
75441;SDS011;64019;48.312;14.226;2023-08-06T03:16:34;5.67;;;4.20;;
75441;SDS011;64019;48.312;14.226;2023-08-06T03:19:00;4.27;;;3.43;;
75441;SDS011;64019;48.312;14.226;2023-08-06T03:21:26;4.60;;;4.10;;
75441;SDS011;64019;48.312;14.226;2023-08-06T03:23:52;7.70;;;3.80;;
75441;SDS011;64019;48.312;14.226;2023-08-06T03:26:17;6.37;;;4.03;;
75441;SDS011;64019;48.312;14.226;2023-08-06T03:28:43;4.50;;;3.67;;
75441;SDS011;64019;48.312;14.226;2023-08-06T03:31:09;4.60;;;3.87;;
75441;SDS011;64019;48.312;14.226;2023-08-06T03:33:34;5.53;;;4.40;;
75441;SDS011;64019;48.312;14.226;2023-08-06T03:36:00;4.80;;;3.73;;
75441;SDS011;64019;48.312;14.226;2023-08-06T03:38:26;4.53;;;3.40;;
75441;SDS011;64019;48.312;14.226;2023-08-06T03:40:52;4.80;;;3.83;;
75441;SDS011;64019;48.312;14.226;2023-08-06T03:43:18;5.77;;;4.33;;
75441;SDS011;64019;48.312;14.226;2023-08-06T03:45:43;5.07;;;3.90;;
75441;SDS011;64019;48.312;14.226;2023-08-06T03:48:09;4.27;;;3.77;;
75441;SDS011;64019;48.312;14.226;2023-08-06T03:50:35;4.80;;;3.80;;
75441;SDS011;64019;48.312;14.226;2023-08-06T03:53:01;4.77;;;4.23;;
75441;SDS011;64019;48.312;14.226;2023-08-06T03:55:26;4.87;;;3.80;;
75441;SDS011;64019;48.312;14.226;2023-08-06T03:57:52;4.10;;;3.63;;
75441;SDS011;64019;48.312;14.226;2023-08-06T04:00:18;5.37;;;3.87;;
75441;SDS011;64019;48.312;14.226;2023-08-06T04:02:44;5.10;;;4.17;;
75441;SDS011;64019;48.312;14.226;2023-08-06T04:05:09;5.00;;;3.90;;
75441;SDS011;64019;48.312;14.226;2023-08-06T04:07:35;4.57;;;3.70;;
75441;SDS011;64019;48.312;14.226;2023-08-06T04:10:01;4.20;;;3.77;;
75441;SDS011;64019;48.312;14.226;2023-08-06T04:12:28;5.50;;;4.00;;
75441;SDS011;64019;48.312;14.226;2023-08-06T04:14:55;6.17;;;4.10;;
75441;SDS011;64019;48.312;14.226;2023-08-06T04:17:22;5.97;;;4.77;;
75441;SDS011;64019;48.312;14.226;2023-08-06T04:19:52;7.33;;;4.83;;
75441;SDS011;64019;48.312;14.226;2023-08-06T04:22:19;6.77;;;4.57;;
75441;SDS011;64019;48.312;14.226;2023-08-06T04:24:46;5.80;;;4.63;;
75441;SDS011;64019;48.312;14.226;2023-08-06T04:27:13;5.93;;;4.63;;
75441;SDS011;64019;48.312;14.226;2023-08-06T04:29:39;5.23;;;4.27;;
75441;SDS011;64019;48.312;14.226;2023-08-06T04:32:06;5.87;;;3.80;;
75441;SDS011;64019;48.312;14.226;2023-08-06T04:34:33;5.87;;;3.87;;
75441;SDS011;64019;48.312;14.226;2023-08-06T04:37:02;5.07;;;4.40;;
75441;SDS011;64019;48.312;14.226;2023-08-06T04:39:28;7.43;;;3.67;;
75441;SDS011;64019;48.312;14.226;2023-08-06T04:41:55;4.33;;;3.53;;
75441;SDS011;64019;48.312;14.226;2023-08-06T04:44:22;4.20;;;3.50;;
75441;SDS011;64019;48.312;14.226;2023-08-06T04:46:48;4.50;;;3.03;;
75441;SDS011;64019;48.312;14.226;2023-08-06T04:49:14;4.90;;;2.93;;
75441;SDS011;64019;48.312;14.226;2023-08-06T04:51:39;6.27;;;2.77;;
75441;SDS011;64019;48.312;14.226;2023-08-06T04:54:05;4.73;;;2.57;;
75441;SDS011;64019;48.312;14.226;2023-08-06T04:56:31;3.20;;;2.30;;
75441;SDS011;64019;48.312;14.226;2023-08-06T04:58:57;3.43;;;2.23;;
75441;SDS011;64019;48.312;14.226;2023-08-06T05:01:23;2.43;;;2.00;;
75441;SDS011;64019;48.312;14.226;2023-08-06T05:03:49;2.57;;;2.27;;
75441;SDS011;64019;48.312;14.226;2023-08-06T05:06:15;1.70;;;1.60;;
75441;SDS011;64019;48.312;14.226;2023-08-06T05:08:40;3.77;;;2.27;;
75441;SDS011;64019;48.312;14.226;2023-08-06T05:11:06;2.50;;;1.97;;
75441;SDS011;64019;48.312;14.226;2023-08-06T05:13:32;5.10;;;2.23;;
75441;SDS011;64019;48.312;14.226;2023-08-06T05:15:57;3.47;;;2.30;;
75441;SDS011;64019;48.312;14.226;2023-08-06T05:18:23;3.23;;;2.20;;
75441;SDS011;64019;48.312;14.226;2023-08-06T05:20:49;3.10;;;2.33;;
75441;SDS011;64019;48.312;14.226;2023-08-06T05:23:15;3.73;;;2.33;;
75441;SDS011;64019;48.312;14.226;2023-08-06T05:25:41;2.73;;;2.27;;
75441;SDS011;64019;48.312;14.226;2023-08-06T05:28:07;3.50;;;2.47;;
75441;SDS011;64019;48.312;14.226;2023-08-06T05:30:33;4.00;;;2.97;;
75441;SDS011;64019;48.312;14.226;2023-08-06T05:32:58;2.87;;;2.57;;
75441;SDS011;64019;48.312;14.226;2023-08-06T05:35:24;4.07;;;2.83;;
75441;SDS011;64019;48.312;14.226;2023-08-06T05:37:50;4.27;;;2.90;;
75441;SDS011;64019;48.312;14.226;2023-08-06T05:40:15;3.90;;;3.30;;
75441;SDS011;64019;48.312;14.226;2023-08-06T05:42:41;5.27;;;3.60;;
75441;SDS011;64019;48.312;14.226;2023-08-06T05:45:07;3.87;;;2.93;;
75441;SDS011;64019;48.312;14.226;2023-08-06T05:47:33;5.13;;;3.30;;
75441;SDS011;64019;48.312;14.226;2023-08-06T05:49:59;4.67;;;3.17;;
75441;SDS011;64019;48.312;14.226;2023-08-06T05:52:25;4.87;;;3.57;;
75441;SDS011;64019;48.312;14.226;2023-08-06T05:54:50;6.50;;;3.77;;
75441;SDS011;64019;48.312;14.226;2023-08-06T05:57:16;4.70;;;3.80;;
75441;SDS011;64019;48.312;14.226;2023-08-06T05:59:42;7.10;;;3.67;;
75441;SDS011;64019;48.312;14.226;2023-08-06T06:02:08;4.83;;;3.83;;
75441;SDS011;64019;48.312;14.226;2023-08-06T06:04:34;5.93;;;3.70;;
75441;SDS011;64019;48.312;14.226;2023-08-06T06:06:59;7.33;;;3.93;;
75441;SDS011;64019;48.312;14.226;2023-08-06T06:09:25;5.77;;;3.43;;
75441;SDS011;64019;48.312;14.226;2023-08-06T06:11:51;5.80;;;3.70;;
75441;SDS011;64019;48.312;14.226;2023-08-06T06:14:17;4.50;;;3.43;;
75441;SDS011;64019;48.312;14.226;2023-08-06T06:16:43;5.83;;;3.63;;
75441;SDS011;64019;48.312;14.226;2023-08-06T06:19:09;6.47;;;3.83;;
75441;SDS011;64019;48.312;14.226;2023-08-06T06:21:35;5.37;;;3.93;;
75441;SDS011;64019;48.312;14.226;2023-08-06T06:24:02;6.20;;;4.00;;
75441;SDS011;64019;48.312;14.226;2023-08-06T06:26:29;7.10;;;3.53;;
75441;SDS011;64019;48.312;14.226;2023-08-06T06:28:55;5.17;;;3.73;;
75441;SDS011;64019;48.312;14.226;2023-08-06T06:31:21;5.53;;;4.17;;
75441;SDS011;64019;48.312;14.226;2023-08-06T06:33:46;4.03;;;3.37;;
75441;SDS011;64019;48.312;14.226;2023-08-06T06:36:12;6.33;;;3.37;;
75441;SDS011;64019;48.312;14.226;2023-08-06T06:38:38;5.23;;;3.77;;
75441;SDS011;64019;48.312;14.226;2023-08-06T06:41:03;4.03;;;3.63;;
75441;SDS011;64019;48.312;14.226;2023-08-06T06:43:29;5.27;;;3.80;;
75441;SDS011;64019;48.312;14.226;2023-08-06T06:46:01;3.90;;;3.20;;
75441;SDS011;64019;48.312;14.226;2023-08-06T06:48:27;6.77;;;3.27;;
75441;SDS011;64019;48.312;14.226;2023-08-06T06:50:54;5.23;;;3.50;;
75441;SDS011;64019;48.312;14.226;2023-08-06T06:53:20;4.37;;;3.10;;
75441;SDS011;64019;48.312;14.226;2023-08-06T06:55:46;4.03;;;3.40;;
75441;SDS011;64019;48.312;14.226;2023-08-06T06:58:14;3.73;;;2.67;;
75441;SDS011;64019;48.312;14.226;2023-08-06T07:00:41;3.83;;;2.90;;
75441;SDS011;64019;48.312;14.226;2023-08-06T07:03:07;4.50;;;2.67;;
75441;SDS011;64019;48.312;14.226;2023-08-06T07:05:32;3.57;;;2.77;;
75441;SDS011;64019;48.312;14.226;2023-08-06T07:07:58;3.23;;;2.80;;
75441;SDS011;64019;48.312;14.226;2023-08-06T07:10:24;4.63;;;3.00;;
75441;SDS011;64019;48.312;14.226;2023-08-06T07:12:50;4.43;;;3.30;;
75441;SDS011;64019;48.312;14.226;2023-08-06T07:15:16;7.57;;;3.50;;
75441;SDS011;64019;48.312;14.226;2023-08-06T07:17:42;3.57;;;2.90;;
75441;SDS011;64019;48.312;14.226;2023-08-06T07:20:08;4.70;;;3.37;;
75441;SDS011;64019;48.312;14.226;2023-08-06T07:22:34;3.87;;;2.63;;
75441;SDS011;64019;48.312;14.226;2023-08-06T07:25:00;5.67;;;3.27;;
75441;SDS011;64019;48.312;14.226;2023-08-06T07:27:26;4.13;;;2.80;;
75441;SDS011;64019;48.312;14.226;2023-08-06T07:29:52;5.13;;;3.07;;
75441;SDS011;64019;48.312;14.226;2023-08-06T07:32:17;5.60;;;3.50;;
75441;SDS011;64019;48.312;14.226;2023-08-06T07:34:43;4.80;;;2.90;;
75441;SDS011;64019;48.312;14.226;2023-08-06T07:37:09;4.73;;;3.10;;
75441;SDS011;64019;48.312;14.226;2023-08-06T07:39:34;3.00;;;2.70;;
75441;SDS011;64019;48.312;14.226;2023-08-06T07:42:00;3.77;;;2.93;;
75441;SDS011;64019;48.312;14.226;2023-08-06T07:44:27;5.33;;;3.17;;
75441;SDS011;64019;48.312;14.226;2023-08-06T07:46:53;3.50;;;3.00;;
75441;SDS011;64019;48.312;14.226;2023-08-06T07:49:18;3.87;;;3.00;;
75441;SDS011;64019;48.312;14.226;2023-08-06T07:51:44;5.27;;;3.20;;
75441;SDS011;64019;48.312;14.226;2023-08-06T07:54:09;4.03;;;3.00;;
75441;SDS011;64019;48.312;14.226;2023-08-06T07:56:35;3.17;;;2.87;;
75441;SDS011;64019;48.312;14.226;2023-08-06T07:59:01;3.20;;;2.90;;
75441;SDS011;64019;48.312;14.226;2023-08-06T08:01:27;4.40;;;2.87;;
75441;SDS011;64019;48.312;14.226;2023-08-06T08:03:53;4.97;;;2.93;;
75441;SDS011;64019;48.312;14.226;2023-08-06T08:06:18;4.83;;;2.93;;
75441;SDS011;64019;48.312;14.226;2023-08-06T08:08:44;3.83;;;2.93;;
75441;SDS011;64019;48.312;14.226;2023-08-06T08:11:10;3.73;;;2.90;;
75441;SDS011;64019;48.312;14.226;2023-08-06T08:13:35;4.87;;;3.50;;
75441;SDS011;64019;48.312;14.226;2023-08-06T08:16:01;5.73;;;2.90;;
75441;SDS011;64019;48.312;14.226;2023-08-06T08:18:27;5.73;;;2.93;;
75441;SDS011;64019;48.312;14.226;2023-08-06T08:20:53;4.37;;;2.90;;
75441;SDS011;64019;48.312;14.226;2023-08-06T08:23:19;4.17;;;2.67;;
75441;SDS011;64019;48.312;14.226;2023-08-06T08:25:44;6.53;;;3.10;;
75441;SDS011;64019;48.312;14.226;2023-08-06T08:28:10;4.37;;;2.93;;
75441;SDS011;64019;48.312;14.226;2023-08-06T08:30:35;3.87;;;3.00;;
75441;SDS011;64019;48.312;14.226;2023-08-06T08:33:01;4.03;;;2.47;;
75441;SDS011;64019;48.312;14.226;2023-08-06T08:35:27;3.93;;;2.63;;
75441;SDS011;64019;48.312;14.226;2023-08-06T08:37:52;3.67;;;2.60;;
75441;SDS011;64019;48.312;14.226;2023-08-06T08:40:19;3.00;;;2.37;;
75441;SDS011;64019;48.312;14.226;2023-08-06T08:42:47;2.30;;;2.10;;
75441;SDS011;64019;48.312;14.226;2023-08-06T08:45:14;3.80;;;2.40;;
75441;SDS011;64019;48.312;14.226;2023-08-06T08:47:43;2.83;;;2.10;;
75441;SDS011;64019;48.312;14.226;2023-08-06T08:50:09;5.87;;;2.57;;
75441;SDS011;64019;48.312;14.226;2023-08-06T08:52:36;5.83;;;2.80;;
75441;SDS011;64019;48.312;14.226;2023-08-06T08:55:03;4.43;;;2.40;;
75441;SDS011;64019;48.312;14.226;2023-08-06T08:57:31;3.57;;;2.53;;
75441;SDS011;64019;48.312;14.226;2023-08-06T08:59:57;4.30;;;2.47;;
75441;SDS011;64019;48.312;14.226;2023-08-06T09:02:23;5.13;;;2.83;;
75441;SDS011;64019;48.312;14.226;2023-08-06T09:04:51;3.10;;;2.70;;
75441;SDS011;64019;48.312;14.226;2023-08-06T09:07:19;4.63;;;2.93;;
75441;SDS011;64019;48.312;14.226;2023-08-06T09:09:48;3.93;;;2.77;;
75441;SDS011;64019;48.312;14.226;2023-08-06T09:12:15;4.07;;;2.57;;
75441;SDS011;64019;48.312;14.226;2023-08-06T09:14:41;5.97;;;3.03;;
75441;SDS011;64019;48.312;14.226;2023-08-06T09:17:07;11.57;;;3.13;;
75441;SDS011;64019;48.312;14.226;2023-08-06T09:19:35;3.73;;;2.53;;
75441;SDS011;64019;48.312;14.226;2023-08-06T09:22:01;4.93;;;2.87;;
75441;SDS011;64019;48.312;14.226;2023-08-06T09:24:27;5.13;;;3.10;;
75441;SDS011;64019;48.312;14.226;2023-08-06T09:26:53;5.50;;;3.13;;
75441;SDS011;64019;48.312;14.226;2023-08-06T09:29:19;3.97;;;2.97;;
75441;SDS011;64019;48.312;14.226;2023-08-06T09:31:46;2.93;;;2.60;;
75441;SDS011;64019;48.312;14.226;2023-08-06T09:34:16;3.37;;;2.73;;
75441;SDS011;64019;48.312;14.226;2023-08-06T09:36:43;4.53;;;2.53;;
75441;SDS011;64019;48.312;14.226;2023-08-06T09:39:16;3.87;;;2.60;;
75441;SDS011;64019;48.312;14.226;2023-08-06T09:42:01;4.97;;;3.30;;
75441;SDS011;64019;48.312;14.226;2023-08-06T09:44:29;5.40;;;2.80;;
75441;SDS011;64019;48.312;14.226;2023-08-06T09:46:58;4.00;;;2.60;;
75441;SDS011;64019;48.312;14.226;2023-08-06T09:49:25;3.97;;;2.83;;
75441;SDS011;64019;48.312;14.226;2023-08-06T09:52:12;5.37;;;3.03;;
75441;SDS011;64019;48.312;14.226;2023-08-06T09:54:38;3.53;;;2.40;;
75441;SDS011;64019;48.312;14.226;2023-08-06T09:57:07;3.27;;;2.30;;
75441;SDS011;64019;48.312;14.226;2023-08-06T09:59:34;4.20;;;2.53;;
75441;SDS011;64019;48.312;14.226;2023-08-06T10:02:02;4.27;;;2.50;;
75441;SDS011;64019;48.312;14.226;2023-08-06T10:04:31;3.60;;;2.30;;
75441;SDS011;64019;48.312;14.226;2023-08-06T10:06:57;4.83;;;2.33;;
75441;SDS011;64019;48.312;14.226;2023-08-06T10:09:24;4.10;;;2.03;;
75441;SDS011;64019;48.312;14.226;2023-08-06T10:11:50;6.07;;;1.80;;
75441;SDS011;64019;48.312;14.226;2023-08-06T10:14:20;4.67;;;2.00;;
75441;SDS011;64019;48.312;14.226;2023-08-06T10:16:49;4.33;;;1.87;;
75441;SDS011;64019;48.312;14.226;2023-08-06T10:19:16;4.13;;;2.30;;
75441;SDS011;64019;48.312;14.226;2023-08-06T10:22:07;1.60;;;1.50;;
75441;SDS011;64019;48.312;14.226;2023-08-06T10:24:51;2.00;;;1.47;;
75441;SDS011;64019;48.312;14.226;2023-08-06T10:32:57;3.23;;;1.73;;
75441;SDS011;64019;48.312;14.226;2023-08-06T10:35:43;3.80;;;1.80;;
75441;SDS011;64019;48.312;14.226;2023-08-06T10:43:29;3.07;;;1.40;;
75441;SDS011;64019;48.312;14.226;2023-08-06T10:45:58;8.00;;;1.50;;
75441;SDS011;64019;48.312;14.226;2023-08-06T10:48:31;4.87;;;1.70;;
75441;SDS011;64019;48.312;14.226;2023-08-06T10:51:11;1.87;;;1.33;;
75441;SDS011;64019;48.312;14.226;2023-08-06T10:53:38;1.70;;;1.37;;
75441;SDS011;64019;48.312;14.226;2023-08-06T10:56:14;2.10;;;1.40;;
75441;SDS011;64019;48.312;14.226;2023-08-06T10:58:40;2.70;;;1.30;;
75441;SDS011;64019;48.312;14.226;2023-08-06T11:01:06;4.00;;;1.60;;
75441;SDS011;64019;48.312;14.226;2023-08-06T11:03:33;2.83;;;1.47;;
75441;SDS011;64019;48.312;14.226;2023-08-06T11:05:59;3.03;;;1.27;;
75441;SDS011;64019;48.312;14.226;2023-08-06T11:08:29;2.53;;;1.17;;
75441;SDS011;64019;48.312;14.226;2023-08-06T11:11:11;2.27;;;1.10;;
75441;SDS011;64019;48.312;14.226;2023-08-06T11:13:40;3.77;;;1.20;;
75441;SDS011;64019;48.312;14.226;2023-08-06T11:16:20;1.40;;;0.90;;
75441;SDS011;64019;48.312;14.226;2023-08-06T11:18:51;1.23;;;0.87;;
75441;SDS011;64019;48.312;14.226;2023-08-06T11:21:22;3.87;;;1.10;;
75441;SDS011;64019;48.312;14.226;2023-08-06T11:23:49;0.97;;;0.60;;
75441;SDS011;64019;48.312;14.226;2023-08-06T11:26:22;1.27;;;0.60;;
75441;SDS011;64019;48.312;14.226;2023-08-06T11:28:49;2.10;;;0.80;;
75441;SDS011;64019;48.312;14.226;2023-08-06T11:31:24;2.93;;;0.90;;
75441;SDS011;64019;48.312;14.226;2023-08-06T11:33:50;2.33;;;0.73;;
75441;SDS011;64019;48.312;14.226;2023-08-06T11:36:16;1.17;;;0.83;;
75441;SDS011;64019;48.312;14.226;2023-08-06T11:38:54;0.73;;;0.73;;
75441;SDS011;64019;48.312;14.226;2023-08-06T11:41:19;2.47;;;0.90;;
75441;SDS011;64019;48.312;14.226;2023-08-06T11:43:45;1.53;;;0.90;;
75441;SDS011;64019;48.312;14.226;2023-08-06T11:46:12;1.63;;;0.77;;
75441;SDS011;64019;48.312;14.226;2023-08-06T11:48:53;0.70;;;0.53;;
75441;SDS011;64019;48.312;14.226;2023-08-06T11:51:26;1.03;;;0.50;;
75441;SDS011;64019;48.312;14.226;2023-08-06T11:53:54;3.13;;;0.60;;
75441;SDS011;64019;48.312;14.226;2023-08-06T11:56:26;0.60;;;0.50;;
75441;SDS011;64019;48.312;14.226;2023-08-06T11:58:52;2.93;;;0.60;;
75441;SDS011;64019;48.312;14.226;2023-08-06T12:01:19;2.33;;;0.60;;
75441;SDS011;64019;48.312;14.226;2023-08-06T12:03:45;1.23;;;0.70;;
75441;SDS011;64019;48.312;14.226;2023-08-06T12:06:11;0.80;;;0.60;;
75441;SDS011;64019;48.312;14.226;2023-08-06T12:08:36;1.70;;;0.60;;
75441;SDS011;64019;48.312;14.226;2023-08-06T12:11:03;1.30;;;0.90;;
75441;SDS011;64019;48.312;14.226;2023-08-06T12:13:29;2.77;;;0.93;;
75441;SDS011;64019;48.312;14.226;2023-08-06T12:15:54;2.80;;;0.77;;
75441;SDS011;64019;48.312;14.226;2023-08-06T12:18:22;3.57;;;0.70;;
75441;SDS011;64019;48.312;14.226;2023-08-06T12:20:48;6.70;;;0.83;;
75441;SDS011;64019;48.312;14.226;2023-08-06T12:23:14;2.43;;;0.63;;
75441;SDS011;64019;48.312;14.226;2023-08-06T12:25:40;1.43;;;0.63;;
75441;SDS011;64019;48.312;14.226;2023-08-06T12:28:06;4.27;;;0.80;;
75441;SDS011;64019;48.312;14.226;2023-08-06T12:30:33;1.57;;;0.90;;
75441;SDS011;64019;48.312;14.226;2023-08-06T12:32:59;0.50;;;0.40;;
75441;SDS011;64019;48.312;14.226;2023-08-06T12:35:24;0.53;;;0.50;;
75441;SDS011;64019;48.312;14.226;2023-08-06T12:37:50;3.70;;;0.50;;
75441;SDS011;64019;48.312;14.226;2023-08-06T12:40:19;0.57;;;0.40;;
75441;SDS011;64019;48.312;14.226;2023-08-06T12:42:45;2.63;;;0.53;;
75441;SDS011;64019;48.312;14.226;2023-08-06T12:45:11;0.87;;;0.50;;
75441;SDS011;64019;48.312;14.226;2023-08-06T12:47:37;5.70;;;0.57;;
75441;SDS011;64019;48.312;14.226;2023-08-06T12:50:03;1.27;;;0.40;;
75441;SDS011;64019;48.312;14.226;2023-08-06T12:52:29;0.87;;;0.40;;
75441;SDS011;64019;48.312;14.226;2023-08-06T12:54:55;1.07;;;0.50;;
75441;SDS011;64019;48.312;14.226;2023-08-06T12:57:21;0.77;;;0.40;;
75441;SDS011;64019;48.312;14.226;2023-08-06T12:59:46;1.50;;;0.50;;
75441;SDS011;64019;48.312;14.226;2023-08-06T13:02:13;0.73;;;0.60;;
75441;SDS011;64019;48.312;14.226;2023-08-06T13:04:38;0.40;;;0.37;;
75441;SDS011;64019;48.312;14.226;2023-08-06T13:07:04;0.57;;;0.47;;
75441;SDS011;64019;48.312;14.226;2023-08-06T13:09:31;0.93;;;0.37;;
75441;SDS011;64019;48.312;14.226;2023-08-06T13:11:57;1.37;;;0.50;;
75441;SDS011;64019;48.312;14.226;2023-08-06T13:14:25;0.87;;;0.40;;
75441;SDS011;64019;48.312;14.226;2023-08-06T13:16:50;0.70;;;0.30;;
75441;SDS011;64019;48.312;14.226;2023-08-06T13:19:16;3.50;;;0.53;;
75441;SDS011;64019;48.312;14.226;2023-08-06T13:24:15;1.70;;;0.40;;
75441;SDS011;64019;48.312;14.226;2023-08-06T13:26:40;1.60;;;0.60;;
75441;SDS011;64019;48.312;14.226;2023-08-06T13:29:06;0.70;;;0.33;;
75441;SDS011;64019;48.312;14.226;2023-08-06T13:31:32;0.33;;;0.33;;
75441;SDS011;64019;48.312;14.226;2023-08-06T13:33:58;0.30;;;0.30;;
75441;SDS011;64019;48.312;14.226;2023-08-06T13:36:27;1.50;;;0.30;;
75441;SDS011;64019;48.312;14.226;2023-08-06T13:38:53;1.90;;;0.30;;
75441;SDS011;64019;48.312;14.226;2023-08-06T13:41:19;3.17;;;0.40;;
75441;SDS011;64019;48.312;14.226;2023-08-06T13:43:45;0.53;;;0.37;;
75441;SDS011;64019;48.312;14.226;2023-08-06T13:46:11;1.17;;;0.77;;
75441;SDS011;64019;48.312;14.226;2023-08-06T13:48:41;0.50;;;0.40;;
75441;SDS011;64019;48.312;14.226;2023-08-06T13:51:08;1.10;;;0.30;;
75441;SDS011;64019;48.312;14.226;2023-08-06T13:53:34;1.53;;;0.60;;
75441;SDS011;64019;48.312;14.226;2023-08-06T13:56:00;1.30;;;0.53;;
75441;SDS011;64019;48.312;14.226;2023-08-06T13:58:25;1.60;;;0.47;;
75441;SDS011;64019;48.312;14.226;2023-08-06T14:00:51;0.67;;;0.30;;
75441;SDS011;64019;48.312;14.226;2023-08-06T14:03:19;2.00;;;0.40;;
75441;SDS011;64019;48.312;14.226;2023-08-06T14:05:45;0.87;;;0.40;;
75441;SDS011;64019;48.312;14.226;2023-08-06T14:08:10;0.83;;;0.83;;
75441;SDS011;64019;48.312;14.226;2023-08-06T14:10:36;2.63;;;0.30;;
75441;SDS011;64019;48.312;14.226;2023-08-06T14:13:02;5.10;;;0.40;;
75441;SDS011;64019;48.312;14.226;2023-08-06T14:15:27;0.13;;;0.13;;
75441;SDS011;64019;48.312;14.226;2023-08-06T14:17:53;0.83;;;0.40;;
75441;SDS011;64019;48.312;14.226;2023-08-06T14:20:19;0.57;;;0.20;;
75441;SDS011;64019;48.312;14.226;2023-08-06T14:22:44;0.20;;;0.20;;
75441;SDS011;64019;48.312;14.226;2023-08-06T14:25:10;0.20;;;0.20;;
75441;SDS011;64019;48.312;14.226;2023-08-06T14:27:35;0.10;;;0.10;;
75441;SDS011;64019;48.312;14.226;2023-08-06T14:30:03;0.10;;;0.10;;
75441;SDS011;64019;48.312;14.226;2023-08-06T14:32:32;1.67;;;0.40;;
75441;SDS011;64019;48.312;14.226;2023-08-06T14:34:58;0.83;;;0.20;;
75441;SDS011;64019;48.312;14.226;2023-08-06T14:37:24;0.37;;;0.10;;
75441;SDS011;64019;48.312;14.226;2023-08-06T14:39:50;0.30;;;0.30;;
75441;SDS011;64019;48.312;14.226;2023-08-06T14:42:16;0.30;;;0.20;;
75441;SDS011;64019;48.312;14.226;2023-08-06T14:44:42;0.40;;;0.20;;
75441;SDS011;64019;48.312;14.226;2023-08-06T14:47:08;0.93;;;0.20;;
75441;SDS011;64019;48.312;14.226;2023-08-06T14:49:34;0.17;;;0.17;;